This is the latest recevied weather packets stored in our database for station/object OM5AST-13. If no packets are shown the sender has not sent any weather packets the latest 10 day(s).
| Time | Temp. | Humidity | Pressure | Rain* | Wind** | Luminosity | Snow |
|---|---|---|---|---|---|---|---|
| 1777890235 | 23.33° C | 38% | - | 0 mm | - | 0 W/m² | - |
| 1777889035 | 22.22° C | 38% | - | 0 mm | - | 0 W/m² | - |
| 1777887835 | 21.67° C | 38% | - | 0 mm | - | 0 W/m² | - |
| 1777886636 | 21.11° C | 39% | - | 0 mm | - | 0 W/m² | - |
| 1777885436 | 20.56° C | 40% | - | 0 mm | - | 0 W/m² | - |
| 1777884235 | 20° C | 41% | - | 0 mm | - | 0 W/m² | - |
| 1777883036 | 20° C | 41% | - | 0 mm | - | 0 W/m² | - |
| 1777881835 | 20° C | 41% | - | 0 mm | - | 0 W/m² | - |
| 1777880635 | 18.33° C | 43% | - | 0 mm | - | 0 W/m² | - |
| 1777879435 | 17.78° C | 47% | - | 0 mm | - | 0 W/m² | - |
| 1777878236 | 16.67° C | 50% | - | 0 mm | - | 0 W/m² | - |
| 1777877036 | 16.11° C | 51% | - | 0 mm | - | 0 W/m² | - |
| 1777875835 | 15° C | 52% | - | 0 mm | - | 0 W/m² | - |
| 1777874635 | 14.44° C | 53% | - | 0 mm | - | 0 W/m² | - |
| 1777873435 | 13.89° C | 54% | - | 0 mm | - | 0 W/m² | - |
| 1777872235 | 13.33° C | 56% | - | 0 mm | - | 0 W/m² | - |
| 1777871035 | 12.78° C | 56% | - | 0 mm | - | 0 W/m² | - |
| 1777869836 | 12.22° C | 58% | - | 0 mm | - | 0 W/m² | - |
| 1777868636 | 11.67° C | 60% | - | 0 mm | - | 0 W/m² | - |
| 1777867435 | 11.67° C | 59% | - | 0 mm | - | 0 W/m² | - |
| 1777866235 | 11.67° C | 59% | - | 0 mm | - | 0 W/m² | - |
| 1777865035 | 11.67° C | 58% | - | 0 mm | - | 0 W/m² | - |
| 1777863835 | 12.22° C | 57% | - | 0 mm | - | 0 W/m² | - |
| 1777862635 | 12.22° C | 58% | - | 0 mm | - | 0 W/m² | - |
| 1777861435 | 12.22° C | 57% | - | 0 mm | - | 0 W/m² | - |
* Rain latest hour (hover to see other rain measurements)
** Current wind speed in m/s (hover to see current wind gust speed)